sensor_id;sensor_type;location;lat;lon;timestamp;temperature;humidity
31619;DHT22;18230;51.502;7.108;2023-06-19T00:04:09;25.40;95.90
31619;DHT22;18230;51.502;7.108;2023-06-19T00:09:10;25.40;96.80
31619;DHT22;18230;51.502;7.108;2023-06-19T00:14:11;25.30;97.30
31619;DHT22;18230;51.502;7.108;2023-06-19T00:19:11;25.30;97.70
31619;DHT22;18230;51.502;7.108;2023-06-19T00:24:12;25.20;98.60
31619;DHT22;18230;51.502;7.108;2023-06-19T00:29:16;25.20;98.80
31619;DHT22;18230;51.502;7.108;2023-06-19T00:34:17;25.10;99.30
31619;DHT22;18230;51.502;7.108;2023-06-19T00:39:18;25.00;99.80
31619;DHT22;18230;51.502;7.108;2023-06-19T00:44:20;24.90;99.90
31619;DHT22;18230;51.502;7.108;2023-06-19T00:49:21;24.90;99.90
31619;DHT22;18230;51.502;7.108;2023-06-19T00:54:22;24.80;99.90
31619;DHT22;18230;51.502;7.108;2023-06-19T00:59:23;24.70;99.90
31619;DHT22;18230;51.502;7.108;2023-06-19T01:04:23;24.70;99.90
31619;DHT22;18230;51.502;7.108;2023-06-19T01:09:29;24.60;99.90
31619;DHT22;18230;51.502;7.108;2023-06-19T01:14:37;24.60;99.90
31619;DHT22;18230;51.502;7.108;2023-06-19T01:19:39;24.50;99.90
31619;DHT22;18230;51.502;7.108;2023-06-19T01:24:40;24.50;99.90
31619;DHT22;18230;51.502;7.108;2023-06-19T01:29:41;24.50;99.90
31619;DHT22;18230;51.502;7.108;2023-06-19T01:34:44;24.40;99.90
31619;DHT22;18230;51.502;7.108;2023-06-19T01:39:46;24.40;99.90
31619;DHT22;18230;51.502;7.108;2023-06-19T01:44:47;24.40;99.90
31619;DHT22;18230;51.502;7.108;2023-06-19T01:49:48;24.20;99.90
31619;DHT22;18230;51.502;7.108;2023-06-19T01:54:49;24.20;99.90
31619;DHT22;18230;51.502;7.108;2023-06-19T01:59:50;24.10;99.90
31619;DHT22;18230;51.502;7.108;2023-06-19T02:05:02;24.00;99.90
31619;DHT22;18230;51.502;7.108;2023-06-19T02:10:02;23.90;99.90
31619;DHT22;18230;51.502;7.108;2023-06-19T02:15:04;23.80;99.90
31619;DHT22;18230;51.502;7.108;2023-06-19T02:20:05;23.80;99.90
31619;DHT22;18230;51.502;7.108;2023-06-19T02:25:09;23.80;99.90
31619;DHT22;18230;51.502;7.108;2023-06-19T02:30:10;23.70;99.90
31619;DHT22;18230;51.502;7.108;2023-06-19T02:35:11;23.70;99.90
31619;DHT22;18230;51.502;7.108;2023-06-19T02:40:12;23.70;99.90
31619;DHT22;18230;51.502;7.108;2023-06-19T02:45:13;23.60;99.90
31619;DHT22;18230;51.502;7.108;2023-06-19T02:50:14;23.60;99.90
31619;DHT22;18230;51.502;7.108;2023-06-19T02:55:14;23.60;99.90
31619;DHT22;18230;51.502;7.108;2023-06-19T03:00:15;23.60;99.90
31619;DHT22;18230;51.502;7.108;2023-06-19T03:05:25;23.60;99.90
31619;DHT22;18230;51.502;7.108;2023-06-19T03:10:27;23.60;99.90
31619;DHT22;18230;51.502;7.108;2023-06-19T03:15:28;23.60;99.90
31619;DHT22;18230;51.502;7.108;2023-06-19T03:20:28;23.50;99.90
31619;DHT22;18230;51.502;7.108;2023-06-19T03:25:29;23.50;99.90
31619;DHT22;18230;51.502;7.108;2023-06-19T03:30:35;23.50;99.90
31619;DHT22;18230;51.502;7.108;2023-06-19T03:35:35;23.40;99.90
31619;DHT22;18230;51.502;7.108;2023-06-19T03:40:45;23.30;99.90
31619;DHT22;18230;51.502;7.108;2023-06-19T03:45:46;23.20;99.90
31619;DHT22;18230;51.502;7.108;2023-06-19T03:50:46;23.10;99.90
31619;DHT22;18230;51.502;7.108;2023-06-19T03:55:48;23.10;99.90
31619;DHT22;18230;51.502;7.108;2023-06-19T04:00:49;23.00;99.90
31619;DHT22;18230;51.502;7.108;2023-06-19T04:05:51;23.00;99.90
31619;DHT22;18230;51.502;7.108;2023-06-19T04:10:51;23.00;99.90
31619;DHT22;18230;51.502;7.108;2023-06-19T04:15:52;23.00;99.90
31619;DHT22;18230;51.502;7.108;2023-06-19T04:20:53;23.00;99.90
31619;DHT22;18230;51.502;7.108;2023-06-19T04:25:54;22.90;99.90
31619;DHT22;18230;51.502;7.108;2023-06-19T04:30:54;22.90;99.90
31619;DHT22;18230;51.502;7.108;2023-06-19T04:36:11;22.80;99.90
31619;DHT22;18230;51.502;7.108;2023-06-19T04:41:12;22.70;99.90
31619;DHT22;18230;51.502;7.108;2023-06-19T04:46:14;22.70;99.90
31619;DHT22;18230;51.502;7.108;2023-06-19T04:51:20;22.50;99.90
31619;DHT22;18230;51.502;7.108;2023-06-19T04:56:21;22.50;99.90
31619;DHT22;18230;51.502;7.108;2023-06-19T05:01:23;22.50;99.90
31619;DHT22;18230;51.502;7.108;2023-06-19T05:06:29;22.60;99.90
31619;DHT22;18230;51.502;7.108;2023-06-19T05:11:29;22.60;99.90
31619;DHT22;18230;51.502;7.108;2023-06-19T05:16:30;22.50;99.90
31619;DHT22;18230;51.502;7.108;2023-06-19T05:21:30;22.60;99.90
31619;DHT22;18230;51.502;7.108;2023-06-19T05:26:31;22.70;99.90
31619;DHT22;18230;51.502;7.108;2023-06-19T05:31:32;22.70;99.90
31619;DHT22;18230;51.502;7.108;2023-06-19T05:36:32;23.10;99.90
31619;DHT22;18230;51.502;7.108;2023-06-19T05:41:34;23.30;99.90
31619;DHT22;18230;51.502;7.108;2023-06-19T05:46:34;23.00;99.90
31619;DHT22;18230;51.502;7.108;2023-06-19T05:51:35;22.70;99.90
31619;DHT22;18230;51.502;7.108;2023-06-19T05:56:36;22.40;99.90
31619;DHT22;18230;51.502;7.108;2023-06-19T06:01:38;22.40;99.90
31619;DHT22;18230;51.502;7.108;2023-06-19T06:06:39;22.40;99.90
31619;DHT22;18230;51.502;7.108;2023-06-19T06:11:40;22.40;99.90
31619;DHT22;18230;51.502;7.108;2023-06-19T06:16:40;22.30;99.90
31619;DHT22;18230;51.502;7.108;2023-06-19T06:21:41;22.20;99.90
31619;DHT22;18230;51.502;7.108;2023-06-19T06:26:42;22.30;99.90
31619;DHT22;18230;51.502;7.108;2023-06-19T06:31:49;22.40;99.90
31619;DHT22;18230;51.502;7.108;2023-06-19T06:36:49;22.50;99.90
31619;DHT22;18230;51.502;7.108;2023-06-19T06:41:50;22.60;99.90
31619;DHT22;18230;51.502;7.108;2023-06-19T06:46:51;22.70;99.90
31619;DHT22;18230;51.502;7.108;2023-06-19T06:51:51;22.70;99.90
31619;DHT22;18230;51.502;7.108;2023-06-19T06:56:52;22.60;99.90
31619;DHT22;18230;51.502;7.108;2023-06-19T07:01:56;22.50;99.90
31619;DHT22;18230;51.502;7.108;2023-06-19T07:06:59;22.60;99.90
31619;DHT22;18230;51.502;7.108;2023-06-19T07:11:59;22.60;99.90
31619;DHT22;18230;51.502;7.108;2023-06-19T07:17:02;22.70;99.90
31619;DHT22;18230;51.502;7.108;2023-06-19T07:22:03;22.60;99.90
31619;DHT22;18230;51.502;7.108;2023-06-19T07:27:04;22.50;99.90
31619;DHT22;18230;51.502;7.108;2023-06-19T07:32:06;22.50;99.90
31619;DHT22;18230;51.502;7.108;2023-06-19T07:37:09;22.30;99.90
31619;DHT22;18230;51.502;7.108;2023-06-19T07:42:20;22.30;99.90
31619;DHT22;18230;51.502;7.108;2023-06-19T07:47:21;22.30;99.90
31619;DHT22;18230;51.502;7.108;2023-06-19T07:52:28;22.10;99.90
31619;DHT22;18230;51.502;7.108;2023-06-19T07:57:28;22.00;99.90
31619;DHT22;18230;51.502;7.108;2023-06-19T08:02:29;21.80;99.90
31619;DHT22;18230;51.502;7.108;2023-06-19T08:07:30;22.00;99.90
31619;DHT22;18230;51.502;7.108;2023-06-19T08:12:31;22.50;99.90
31619;DHT22;18230;51.502;7.108;2023-06-19T08:17:35;22.50;99.90
31619;DHT22;18230;51.502;7.108;2023-06-19T08:22:36;22.70;99.90
31619;DHT22;18230;51.502;7.108;2023-06-19T08:27:36;23.10;99.90
31619;DHT22;18230;51.502;7.108;2023-06-19T08:32:37;23.40;99.90
31619;DHT22;18230;51.502;7.108;2023-06-19T08:37:40;23.40;99.90
31619;DHT22;18230;51.502;7.108;2023-06-19T08:42:47;23.30;99.90
31619;DHT22;18230;51.502;7.108;2023-06-19T08:47:49;23.00;99.90
31619;DHT22;18230;51.502;7.108;2023-06-19T08:52:49;23.40;99.90
31619;DHT22;18230;51.502;7.108;2023-06-19T08:57:51;23.80;99.90
31619;DHT22;18230;51.502;7.108;2023-06-19T09:02:59;23.90;99.90
31619;DHT22;18230;51.502;7.108;2023-06-19T09:08:01;24.10;99.90
31619;DHT22;18230;51.502;7.108;2023-06-19T09:13:03;24.10;99.90
31619;DHT22;18230;51.502;7.108;2023-06-19T09:18:06;23.90;99.90
31619;DHT22;18230;51.502;7.108;2023-06-19T09:23:11;23.90;99.90
31619;DHT22;18230;51.502;7.108;2023-06-19T09:28:22;24.30;99.90
31619;DHT22;18230;51.502;7.108;2023-06-19T09:33:33;24.80;99.90
31619;DHT22;18230;51.502;7.108;2023-06-19T09:38:36;24.90;99.90
31619;DHT22;18230;51.502;7.108;2023-06-19T09:43:44;24.70;99.90
31619;DHT22;18230;51.502;7.108;2023-06-19T09:48:47;25.00;99.90
31619;DHT22;18230;51.502;7.108;2023-06-19T09:53:56;24.90;99.90
31619;DHT22;18230;51.502;7.108;2023-06-19T09:58:59;25.10;99.90
31619;DHT22;18230;51.502;7.108;2023-06-19T10:04:08;25.30;99.90
31619;DHT22;18230;51.502;7.108;2023-06-19T10:09:09;25.40;99.90
31619;DHT22;18230;51.502;7.108;2023-06-19T10:14:10;25.10;99.90
31619;DHT22;18230;51.502;7.108;2023-06-19T10:19:20;25.40;99.90
31619;DHT22;18230;51.502;7.108;2023-06-19T10:24:23;25.80;99.90
31619;DHT22;18230;51.502;7.108;2023-06-19T10:29:24;25.40;99.90
31619;DHT22;18230;51.502;7.108;2023-06-19T10:34:34;25.40;99.90
31619;DHT22;18230;51.502;7.108;2023-06-19T10:39:38;25.40;99.90
31619;DHT22;18230;51.502;7.108;2023-06-19T10:44:39;25.30;99.90
31619;DHT22;18230;51.502;7.108;2023-06-19T10:49:39;25.50;99.90
31619;DHT22;18230;51.502;7.108;2023-06-19T10:54:40;25.80;99.90
31619;DHT22;18230;51.502;7.108;2023-06-19T10:59:41;25.90;99.90
31619;DHT22;18230;51.502;7.108;2023-06-19T11:04:41;25.80;99.90
31619;DHT22;18230;51.502;7.108;2023-06-19T11:09:45;26.00;99.90
31619;DHT22;18230;51.502;7.108;2023-06-19T11:14:48;26.30;99.90
31619;DHT22;18230;51.502;7.108;2023-06-19T11:19:52;26.40;99.90
31619;DHT22;18230;51.502;7.108;2023-06-19T11:25:14;26.70;99.90
31619;DHT22;18230;51.502;7.108;2023-06-19T11:30:18;26.90;99.90
31619;DHT22;18230;51.502;7.108;2023-06-19T11:35:21;27.20;99.90
31619;DHT22;18230;51.502;7.108;2023-06-19T11:47:13;27.40;99.90
31619;DHT22;18230;51.502;7.108;2023-06-19T11:52:25;27.20;99.90
31619;DHT22;18230;51.502;7.108;2023-06-19T11:57:28;27.30;99.90
31619;DHT22;18230;51.502;7.108;2023-06-19T12:02:37;27.90;99.90
31619;DHT22;18230;51.502;7.108;2023-06-19T12:07:48;28.00;99.90
31619;DHT22;18230;51.502;7.108;2023-06-19T12:12:54;28.10;99.90
31619;DHT22;18230;51.502;7.108;2023-06-19T12:18:15;28.20;99.90
31619;DHT22;18230;51.502;7.108;2023-06-19T12:23:16;28.50;99.90
31619;DHT22;18230;51.502;7.108;2023-06-19T12:28:17;28.70;99.90
31619;DHT22;18230;51.502;7.108;2023-06-19T12:33:20;28.80;99.80
31619;DHT22;18230;51.502;7.108;2023-06-19T12:38:23;28.60;99.90
31619;DHT22;18230;51.502;7.108;2023-06-19T12:43:24;28.70;99.30
31619;DHT22;18230;51.502;7.108;2023-06-19T12:48:26;28.70;98.90
31619;DHT22;18230;51.502;7.108;2023-06-19T12:53:29;28.50;98.60
31619;DHT22;18230;51.502;7.108;2023-06-19T12:58:31;28.70;98.80
31619;DHT22;18230;51.502;7.108;2023-06-19T13:03:40;29.00;97.10
31619;DHT22;18230;51.502;7.108;2023-06-19T13:08:52;28.70;96.60
31619;DHT22;18230;51.502;7.108;2023-06-19T13:18:56;28.90;96.30
31619;DHT22;18230;51.502;7.108;2023-06-19T13:23:57;29.30;95.30
31619;DHT22;18230;51.502;7.108;2023-06-19T13:28:58;29.10;94.00
31619;DHT22;18230;51.502;7.108;2023-06-19T13:33:59;29.00;94.40
31619;DHT22;18230;51.502;7.108;2023-06-19T13:39:00;29.10;93.40
31619;DHT22;18230;51.502;7.108;2023-06-19T13:44:01;29.10;93.10
31619;DHT22;18230;51.502;7.108;2023-06-19T13:49:02;29.20;92.70
31619;DHT22;18230;51.502;7.108;2023-06-19T13:54:03;29.60;92.60
31619;DHT22;18230;51.502;7.108;2023-06-19T13:59:04;29.20;92.40
31619;DHT22;18230;51.502;7.108;2023-06-19T14:04:05;29.40;91.90
31619;DHT22;18230;51.502;7.108;2023-06-19T14:09:06;29.90;90.90
31619;DHT22;18230;51.502;7.108;2023-06-19T14:14:07;30.40;90.80
31619;DHT22;18230;51.502;7.108;2023-06-19T14:19:08;30.50;88.30
31619;DHT22;18230;51.502;7.108;2023-06-19T14:24:08;30.10;88.10
31619;DHT22;18230;51.502;7.108;2023-06-19T14:29:09;30.40;86.40
31619;DHT22;18230;51.502;7.108;2023-06-19T14:34:10;31.00;84.80
31619;DHT22;18230;51.502;7.108;2023-06-19T14:39:11;31.40;81.70
31619;DHT22;18230;51.502;7.108;2023-06-19T14:44:12;31.40;79.50
31619;DHT22;18230;51.502;7.108;2023-06-19T14:49:13;31.30;79.20
31619;DHT22;18230;51.502;7.108;2023-06-19T14:54:14;30.80;78.00
31619;DHT22;18230;51.502;7.108;2023-06-19T14:59:16;30.30;79.10
31619;DHT22;18230;51.502;7.108;2023-06-19T15:04:17;30.90;78.20
31619;DHT22;18230;51.502;7.108;2023-06-19T15:09:17;31.40;75.60
31619;DHT22;18230;51.502;7.108;2023-06-19T15:14:18;31.40;72.90
31619;DHT22;18230;51.502;7.108;2023-06-19T15:19:20;31.50;73.40
31619;DHT22;18230;51.502;7.108;2023-06-19T15:24:20;31.60;73.20
31619;DHT22;18230;51.502;7.108;2023-06-19T15:29:21;31.90;71.40
31619;DHT22;18230;51.502;7.108;2023-06-19T15:34:22;32.50;70.70
31619;DHT22;18230;51.502;7.108;2023-06-19T15:39:23;32.50;69.10
31619;DHT22;18230;51.502;7.108;2023-06-19T15:44:24;32.50;69.30
31619;DHT22;18230;51.502;7.108;2023-06-19T15:49:25;32.70;68.20
31619;DHT22;18230;51.502;7.108;2023-06-19T15:54:26;32.60;68.00
31619;DHT22;18230;51.502;7.108;2023-06-19T15:59:26;32.30;68.50
31619;DHT22;18230;51.502;7.108;2023-06-19T16:04:27;32.70;67.60
31619;DHT22;18230;51.502;7.108;2023-06-19T16:09:28;33.00;66.00
31619;DHT22;18230;51.502;7.108;2023-06-19T16:14:28;33.60;64.60
31619;DHT22;18230;51.502;7.108;2023-06-19T16:19:29;33.50;62.40
31619;DHT22;18230;51.502;7.108;2023-06-19T16:24:30;33.60;60.90
31619;DHT22;18230;51.502;7.108;2023-06-19T16:29:31;34.00;59.60
31619;DHT22;18230;51.502;7.108;2023-06-19T16:34:32;34.00;59.70
31619;DHT22;18230;51.502;7.108;2023-06-19T16:39:32;34.10;58.80
31619;DHT22;18230;51.502;7.108;2023-06-19T16:44:33;33.90;58.90
31619;DHT22;18230;51.502;7.108;2023-06-19T16:49:34;33.70;58.90
31619;DHT22;18230;51.502;7.108;2023-06-19T16:54:35;33.70;58.20
31619;DHT22;18230;51.502;7.108;2023-06-19T16:59:35;33.80;58.00
31619;DHT22;18230;51.502;7.108;2023-06-19T17:04:36;34.00;58.20
31619;DHT22;18230;51.502;7.108;2023-06-19T17:09:39;34.20;57.50
31619;DHT22;18230;51.502;7.108;2023-06-19T17:14:41;34.10;57.20
31619;DHT22;18230;51.502;7.108;2023-06-19T17:19:45;34.60;57.20
31619;DHT22;18230;51.502;7.108;2023-06-19T17:24:46;34.80;56.20
31619;DHT22;18230;51.502;7.108;2023-06-19T17:29:46;34.60;56.20
31619;DHT22;18230;51.502;7.108;2023-06-19T17:34:47;34.20;56.30
31619;DHT22;18230;51.502;7.108;2023-06-19T17:39:48;34.20;55.90
31619;DHT22;18230;51.502;7.108;2023-06-19T17:44:48;34.40;55.00
31619;DHT22;18230;51.502;7.108;2023-06-19T17:49:49;34.40;54.40
31619;DHT22;18230;51.502;7.108;2023-06-19T17:54:50;34.60;54.10
31619;DHT22;18230;51.502;7.108;2023-06-19T17:59:51;34.40;53.60
31619;DHT22;18230;51.502;7.108;2023-06-19T18:04:51;34.30;53.70
31619;DHT22;18230;51.502;7.108;2023-06-19T18:09:52;34.10;54.60
31619;DHT22;18230;51.502;7.108;2023-06-19T18:14:55;33.70;55.00
31619;DHT22;18230;51.502;7.108;2023-06-19T18:19:56;33.30;55.50
31619;DHT22;18230;51.502;7.108;2023-06-19T18:24:57;32.90;56.20
31619;DHT22;18230;51.502;7.108;2023-06-19T18:29:58;32.60;57.10
31619;DHT22;18230;51.502;7.108;2023-06-19T18:34:58;32.60;59.20
31619;DHT22;18230;51.502;7.108;2023-06-19T18:39:59;32.30;58.80
31619;DHT22;18230;51.502;7.108;2023-06-19T18:45:00;31.90;58.60
31619;DHT22;18230;51.502;7.108;2023-06-19T18:50:01;31.60;62.00
31619;DHT22;18230;51.502;7.108;2023-06-19T18:55:02;31.40;61.00
31619;DHT22;18230;51.502;7.108;2023-06-19T19:00:04;31.40;61.10
31619;DHT22;18230;51.502;7.108;2023-06-19T19:05:06;31.30;61.40
31619;DHT22;18230;51.502;7.108;2023-06-19T19:10:08;31.10;62.10
31619;DHT22;18230;51.502;7.108;2023-06-19T19:15:13;30.80;63.10
31619;DHT22;18230;51.502;7.108;2023-06-19T19:20:14;30.50;64.10
31619;DHT22;18230;51.502;7.108;2023-06-19T19:25:15;30.20;65.00
31619;DHT22;18230;51.502;7.108;2023-06-19T19:30:15;30.00;65.90
31619;DHT22;18230;51.502;7.108;2023-06-19T19:35:16;29.70;67.00
31619;DHT22;18230;51.502;7.108;2023-06-19T19:40:17;29.60;67.80
31619;DHT22;18230;51.502;7.108;2023-06-19T19:45:17;29.40;68.40
31619;DHT22;18230;51.502;7.108;2023-06-19T19:50:18;29.30;71.80
31619;DHT22;18230;51.502;7.108;2023-06-19T19:55:19;29.10;72.70
31619;DHT22;18230;51.502;7.108;2023-06-19T20:00:20;28.90;74.10
31619;DHT22;18230;51.502;7.108;2023-06-19T20:05:20;28.60;75.70
31619;DHT22;18230;51.502;7.108;2023-06-19T20:10:21;28.50;77.00
31619;DHT22;18230;51.502;7.108;2023-06-19T20:15:22;28.50;77.00
31619;DHT22;18230;51.502;7.108;2023-06-19T20:20:23;28.30;76.70
31619;DHT22;18230;51.502;7.108;2023-06-19T20:25:23;28.10;77.90
31619;DHT22;18230;51.502;7.108;2023-06-19T20:30:24;28.00;78.60
31619;DHT22;18230;51.502;7.108;2023-06-19T20:35:27;27.90;78.80
31619;DHT22;18230;51.502;7.108;2023-06-19T20:40:28;27.70;79.90
31619;DHT22;18230;51.502;7.108;2023-06-19T20:45:28;27.60;80.60
31619;DHT22;18230;51.502;7.108;2023-06-19T20:50:47;27.50;85.00
31619;DHT22;18230;51.502;7.108;2023-06-19T20:55:48;27.40;84.00
31619;DHT22;18230;51.502;7.108;2023-06-19T21:00:49;27.30;84.60
31619;DHT22;18230;51.502;7.108;2023-06-19T21:05:50;27.10;88.20
31619;DHT22;18230;51.502;7.108;2023-06-19T21:10:50;27.00;90.40
31619;DHT22;18230;51.502;7.108;2023-06-19T21:15:51;26.60;92.20
31619;DHT22;18230;51.502;7.108;2023-06-19T21:20:52;26.60;94.00
31619;DHT22;18230;51.502;7.108;2023-06-19T21:25:55;26.60;92.10
31619;DHT22;18230;51.502;7.108;2023-06-19T21:30:56;26.50;93.60
31619;DHT22;18230;51.502;7.108;2023-06-19T21:35:57;26.50;93.90
31619;DHT22;18230;51.502;7.108;2023-06-19T21:40:58;26.50;93.50
31619;DHT22;18230;51.502;7.108;2023-06-19T21:45:58;26.30;94.00
31619;DHT22;18230;51.502;7.108;2023-06-19T21:50:59;26.20;94.60
31619;DHT22;18230;51.502;7.108;2023-06-19T21:56:00;26.00;95.00
31619;DHT22;18230;51.502;7.108;2023-06-19T22:01:01;26.00;95.40
31619;DHT22;18230;51.502;7.108;2023-06-19T22:06:02;25.90;95.90
31619;DHT22;18230;51.502;7.108;2023-06-19T22:11:03;25.80;96.30
31619;DHT22;18230;51.502;7.108;2023-06-19T22:16:04;25.80;96.90
31619;DHT22;18230;51.502;7.108;2023-06-19T22:21:04;25.70;97.20
31619;DHT22;18230;51.502;7.108;2023-06-19T22:26:05;25.70;97.60
31619;DHT22;18230;51.502;7.108;2023-06-19T22:31:06;25.70;98.00
31619;DHT22;18230;51.502;7.108;2023-06-19T22:36:07;25.70;98.30
31619;DHT22;18230;51.502;7.108;2023-06-19T22:41:10;25.70;99.00
31619;DHT22;18230;51.502;7.108;2023-06-19T22:46:11;25.50;99.60
31619;DHT22;18230;51.502;7.108;2023-06-19T22:51:13;25.50;99.90
31619;DHT22;18230;51.502;7.108;2023-06-19T22:56:13;25.40;99.90
31619;DHT22;18230;51.502;7.108;2023-06-19T23:01:14;25.20;99.90
31619;DHT22;18230;51.502;7.108;2023-06-19T23:06:15;25.20;99.90
31619;DHT22;18230;51.502;7.108;2023-06-19T23:11:16;25.20;99.90
31619;DHT22;18230;51.502;7.108;2023-06-19T23:16:19;25.10;99.90
31619;DHT22;18230;51.502;7.108;2023-06-19T23:21:20;25.00;99.90
31619;DHT22;18230;51.502;7.108;2023-06-19T23:26:20;25.00;99.90
31619;DHT22;18230;51.502;7.108;2023-06-19T23:31:24;24.90;99.90
31619;DHT22;18230;51.502;7.108;2023-06-19T23:36:28;24.80;99.90
31619;DHT22;18230;51.502;7.108;2023-06-19T23:41:29;24.70;99.90
31619;DHT22;18230;51.502;7.108;2023-06-19T23:46:30;24.60;99.90
31619;DHT22;18230;51.502;7.108;2023-06-19T23:51:30;24.50;99.90
31619;DHT22;18230;51.502;7.108;2023-06-19T23:56:31;24.50;99.90
